• Join FlightAware (Why Join?)
  • Login
  • US Flag 
02:32AM EDT


 

Airport Tracker/Info


-or-


 

Live Flight TrackerFlight Track Log ✈ N650W ✈ 07-May-2012 ✈ KHOU - KSAT

Flight Track Log - Related Links

Times and Time Zones

All times are in EDT time to prevent confusion due to time zone crossing. See the N650W flight status page for this flight to view local times or setup timezone preferences in your user account.

Time Position Orientation Groundspeed Altitude Reporting Facility
EDT Latitude Longitude Course Direction KTS MPH feet Rate Location/Type
08:00PM 29.6306 -95.2672 220° Southwest 166 191 600  Level Houston Center
08:01PM 29.5811 -95.3156 270° West 262 302 3,400 2,280 Climbing Houston Center
08:02PM 29.5814 -95.3847 282° West 280 322 5,400 2,460 Climbing Houston Center
08:03PM 29.5978 -95.4714 291° West 272 313 8,100 2,640 Climbing Houston Center
08:04PM 29.6267 -95.5583 287° West 285 328 10,700 2,520 Climbing Houston Center
08:05PM 29.6472 -95.6381 285° West 299 344 13,200 2,160 Climbing Houston Center
08:06PM 29.6694 -95.7344 289° West 310 357 15,100 1,500 Climbing Houston Center
08:07PM 29.6997 -95.8361 285° West 317 365 16,200 900 Climbing Houston Center
08:08PM 29.7256 -95.9472 286° West 336 387 16,900 360 Climbing Houston Center
08:09PM 29.7531 -96.0606 284° West 353 406 17,000  Climbing Houston Center
08:10PM 29.7786 -96.1789 276° West 373 429 17,000  Level Houston Center
08:11PM 29.7908 -96.3064 274° West 391 450 17,000  Level Houston Center
08:12PM 29.7989 -96.4383 276° West 391 450 17,000  Level Houston Center
08:13PM 29.8092 -96.5608 274° West 386 444 17,000  Level Houston Center
08:14PM 29.8172 -96.6808 274° West 386 444 17,000  Level Houston Center
08:15PM 29.8253 -96.8008 276° West 386 444 17,000  Level Houston Center
08:16PM 29.8353 -96.9211 274° West 386 444 17,000  Level Houston Center
08:17PM 29.8431 -97.0433 274° West 386 444 17,000  Level Houston Center
08:18PM 29.8506 -97.1636 275° West 386 444 17,000  Level Houston Center
08:19PM 29.8603 -97.2836 275° West 386 444 17,000  Level Houston Center
08:20PM 29.8697 -97.4064 273° West 386 444 17,000 60 Level Houston Center
08:21PM 29.8731 -97.4758 274° West 383 441 17,100 -840 Climbing Houston Center
08:22PM 29.8806 -97.5961 273° West 375 432 15,700 -1,500 Descending Houston Center
08:23PM 29.8861 -97.7042 275° West 367 422 14,300 -1,500 Descending Houston Center
08:23PM 29.8900 -97.7594 273° West 381 438 13,600 -1,080 Descending Houston Center
08:24PM 29.8931 -97.8289 256° West 368 423 13,100 -1,020 Descending Houston Center
08:25PM 29.8694 -97.9353 244° Southwest 374 430 12,100 -1,140 Descending Houston Center
08:26PM 29.8131 -98.0658 244° Southwest 372 428 10,700 -1,260 Descending Houston Center
08:27PM 29.7756 -98.1542 243° Southwest 296 341 9,300 -1,440 Descending Houston Center
08:28PM 29.7450 -98.2242 253° West 273 314 8,000 -1,500 Descending Houston Center
08:29PM 29.7325 -98.2711 259° West 284 327 7,200 -1,380 Descending Houston Center
08:29PM 29.7233 -98.3278 259° West 287 330 6,500 -900 Descending Houston Center
08:30PM 29.7114 -98.3989 258° West 278 320 5,900 -1,020 Descending Houston Center
08:31PM 29.7028 -98.4461 259° West 284 327 5,100 -1,560 Descending Houston Center
08:32PM 29.6883 -98.5286 257° West 279 321 3,600 -1,380 Descending Houston Center
08:32PM 29.6800 -98.5711 261° West 257 296 3,100 -540 Descending Houston Center
08:33PM 29.6764 -98.5972 201° Southwest 265 305 3,100  Level Houston Center
08:34PM 29.6339 -98.6158 125° Southeast 182 209 3,100 -180 Level Houston Center
08:35PM 29.6050 -98.5686 130° Southeast 116 133 2,800 -660 Descending Houston Center
08:36PM 29.5758 -98.5283 132° Southeast 151 174 1,800 -1,020 Descending Houston Center
08:43PM 29.4869 -98.4137 311° West  Level FlightAware Approximate
08:44PM 29.5475 -98.4927 313° West  Level FlightAware Approximate
08:45PM 29.6097 -98.5704 313° West  Level FlightAware Approximate